createdAt,value
2023-03-03T00:01:41.078Z,102258.72
2023-03-03T00:04:09.433Z,102261.16
2023-03-03T00:06:37.738Z,102266.19
2023-03-03T00:09:06.110Z,102271.47
2023-03-03T00:11:34.453Z,102270.94
2023-03-03T00:14:02.765Z,102271.44
2023-03-03T00:16:36.629Z,102265.78
2023-03-03T00:19:16.446Z,102270.81
2023-03-03T00:21:47.646Z,102269.22
2023-03-03T00:24:22.904Z,102272.16
2023-03-03T00:26:52.941Z,102271.63
2023-03-03T00:29:31.367Z,102284.19
2023-03-03T00:32:23.868Z,102284.41
2023-03-03T00:34:55.621Z,102289.16
2023-03-03T00:37:33.414Z,102286.44
2023-03-03T00:40:21.085Z,102291.22
2023-03-03T00:42:53.732Z,102283.47
2023-03-03T00:45:36.415Z,102282.41
2023-03-03T00:48:25.204Z,102290.72
2023-03-03T00:50:56.184Z,102287.00
2023-03-03T00:53:26.289Z,102292.59
2023-03-03T00:55:55.300Z,102297.94
2023-03-03T00:58:24.788Z,102303.03
2023-03-03T01:00:56.701Z,102301.69
2023-03-03T01:03:27.630Z,102295.81
2023-03-03T01:05:57.380Z,102299.56
2023-03-03T01:08:26.016Z,102298.53
2023-03-03T01:10:57.656Z,102299.09
2023-03-03T01:13:30.206Z,102305.50
2023-03-03T01:16:00.653Z,102315.09
2023-03-03T01:18:29.483Z,102304.63
2023-03-03T01:20:59.419Z,102303.81
2023-03-03T01:23:27.718Z,102305.13
2023-03-03T01:25:56.082Z,102305.38
2023-03-03T01:28:24.353Z,102302.69
2023-03-03T01:30:52.827Z,102301.09
2023-03-03T01:33:21.189Z,102304.56
2023-03-03T01:35:49.732Z,102306.44
2023-03-03T01:38:19.357Z,102309.38
2023-03-03T01:40:55.229Z,102320.84
2023-03-03T01:43:24.051Z,102310.16
2023-03-03T01:46:38.273Z,102311.78
2023-03-03T01:49:14.624Z,102301.09
2023-03-03T01:51:50.424Z,102299.78
2023-03-03T01:54:26.454Z,102307.56
2023-03-03T01:57:01.423Z,102306.75
2023-03-03T01:59:33.499Z,102303.50
2023-03-03T02:02:01.904Z,102302.97
2023-03-03T02:04:30.754Z,102301.91
2023-03-03T02:07:04.423Z,102303.03
2023-03-03T02:09:42.799Z,102309.97
2023-03-03T02:12:15.476Z,102305.97
2023-03-03T02:14:43.869Z,102304.91
2023-03-03T02:17:12.690Z,102297.22
2023-03-03T02:19:50.728Z,102289.75
2023-03-03T02:22:36.007Z,102289.53
2023-03-03T02:25:12.925Z,102290.59
2023-03-03T02:27:42.631Z,102289.53
2023-03-03T02:30:16.686Z,102307.19
2023-03-03T02:32:44.943Z,102310.66
2023-03-03T02:35:34.392Z,102295.66
2023-03-03T02:38:18.882Z,102297.28
2023-03-03T02:41:00.995Z,102307.19
2023-03-03T02:43:38.161Z,102303.94
2023-03-03T02:46:06.634Z,102309.25
2023-03-03T02:48:35.034Z,102304.44
2023-03-03T02:51:03.339Z,102305.22
2023-03-03T02:53:31.634Z,102307.91
2023-03-03T02:55:59.915Z,102308.97
2023-03-03T02:58:28.199Z,102308.97
2023-03-03T03:00:57.943Z,102309.75
2023-03-03T03:03:26.432Z,102312.97
2023-03-03T03:05:54.848Z,102318.91
2023-03-03T03:08:23.229Z,102318.31
2023-03-03T03:10:51.747Z,102319.94
2023-03-03T03:13:20.060Z,102321.56
2023-03-03T03:15:51.154Z,102326.09
2023-03-03T03:18:20.628Z,102322.59
2023-03-03T03:20:48.870Z,102318.56
2023-03-03T03:23:17.232Z,102333.00
2023-03-03T03:25:46.582Z,102327.91
2023-03-03T03:28:16.580Z,102333.00
2023-03-03T03:30:45.922Z,102335.91
2023-03-03T03:33:14.423Z,102331.88
2023-03-03T03:35:45.724Z,102327.84
2023-03-03T03:38:15.194Z,102335.31
2023-03-03T03:40:44.413Z,102342.75
2023-03-03T03:43:12.848Z,102332.56
2023-03-03T03:45:43.572Z,102332.25
2023-03-03T03:48:12.058Z,102337.84
2023-03-03T03:50:40.408Z,102333.31
2023-03-03T03:53:10.166Z,102336.50
2023-03-03T03:55:38.501Z,102335.94
2023-03-03T03:58:07.046Z,102327.13
2023-03-03T04:00:35.386Z,102335.13
2023-03-03T04:03:03.784Z,102341.53
2023-03-03T04:05:32.115Z,102338.84
2023-03-03T04:08:00.421Z,102330.78
2023-03-03T04:10:30.114Z,102346.31
2023-03-03T04:12:59.205Z,102343.06
2023-03-03T04:15:27.580Z,102338.25
2023-03-03T04:17:55.919Z,102341.16
2023-03-03T04:20:24.337Z,102341.72
2023-03-03T04:22:52.634Z,102354.72
2023-03-03T04:25:21.495Z,102355.75
2023-03-03T04:27:52.108Z,102356.50
2023-03-03T04:30:20.577Z,102352.47
2023-03-03T04:32:49.650Z,102352.97
2023-03-03T04:35:18.153Z,102356.13
2023-03-03T04:37:46.466Z,102363.03
2023-03-03T04:40:15.004Z,102362.44
2023-03-03T04:42:43.439Z,102364.06
2023-03-03T04:45:13.905Z,102350.75
2023-03-03T04:47:43.053Z,102363.25
2023-03-03T04:50:13.480Z,102366.16
2023-03-03T04:52:41.764Z,102362.44
2023-03-03T04:55:11.851Z,102362.44
2023-03-03T04:57:40.157Z,102364.81
2023-03-03T05:00:10.461Z,102361.00
2023-03-03T05:02:40.284Z,102362.63
2023-03-03T05:05:11.276Z,102370.63
2023-03-03T05:07:40.432Z,102357.88
2023-03-03T05:10:10.559Z,102369.09
2023-03-03T05:12:39.036Z,102364.56
2023-03-03T05:15:09.015Z,102373.09
2023-03-03T05:17:37.354Z,102374.16
2023-03-03T05:20:10.309Z,102370.69
2023-03-03T05:22:38.630Z,102373.09
2023-03-03T05:25:12.156Z,102378.69
2023-03-03T05:27:40.692Z,102373.63
2023-03-03T05:30:11.388Z,102377.34
2023-03-03T05:32:39.983Z,102374.09
2023-03-03T05:35:10.974Z,102373.88
2023-03-03T05:37:40.559Z,102372.00
2023-03-03T05:40:11.115Z,102367.72
2023-03-03T05:42:39.468Z,102372.00
2023-03-03T05:45:09.282Z,102378.94
2023-03-03T05:47:37.700Z,102386.69
2023-03-03T05:50:07.037Z,102385.88
2023-03-03T05:52:36.650Z,102382.97
2023-03-03T05:55:05.136Z,102385.41
2023-03-03T05:57:35.913Z,102395.56
2023-03-03T06:00:05.537Z,102397.19
2023-03-03T06:02:34.774Z,102390.00
2023-03-03T06:05:03.051Z,102390.78
2023-03-03T06:07:31.339Z,102396.72
2023-03-03T06:10:03.687Z,102386.84
2023-03-03T06:12:32.230Z,102388.72
2023-03-03T06:15:00.510Z,102394.28
2023-03-03T06:17:28.814Z,102403.34
2023-03-03T06:19:57.082Z,102414.75
2023-03-03T06:22:25.398Z,102411.03
2023-03-03T06:24:54.898Z,102410.22
2023-03-03T06:27:24.506Z,102408.38
2023-03-03T06:29:52.961Z,102414.25
2023-03-03T06:32:21.340Z,102413.19
2023-03-03T06:34:49.658Z,102414.50
2023-03-03T06:37:17.957Z,102414.25
2023-03-03T06:39:46.311Z,102412.94
2023-03-03T06:42:14.598Z,102425.81
2023-03-03T06:44:44.259Z,102426.63
2023-03-03T06:47:12.548Z,102430.09
2023-03-03T06:49:40.812Z,102431.44
2023-03-03T06:52:14.961Z,102446.66
2023-03-03T06:54:43.518Z,102439.44
2023-03-03T06:57:19.272Z,102448.03
2023-03-03T06:59:53.732Z,102445.44
2023-03-03T07:02:23.518Z,102449.44
2023-03-03T07:04:51.788Z,102446.50
2023-03-03T07:07:24.630Z,102451.13
2023-03-03T07:09:54.919Z,102449.81
2023-03-03T07:12:25.367Z,102449.81
2023-03-03T07:15:03.111Z,102451.41
2023-03-03T07:17:32.505Z,102456.28
2023-03-03T07:20:03.006Z,102454.50
2023-03-03T07:22:39.146Z,102449.44
2023-03-03T07:25:22.532Z,102459.66
2023-03-03T07:27:50.819Z,102457.53
2023-03-03T07:30:27.467Z,102458.66
2023-03-03T07:32:59.178Z,102469.88
2023-03-03T07:35:39.274Z,102462.44
2023-03-03T07:38:27.651Z,102465.94
2023-03-03T07:40:58.733Z,102469.16
2023-03-03T07:43:39.062Z,102473.19
2023-03-03T07:46:28.525Z,102468.66
2023-03-03T07:48:58.925Z,102471.09
2023-03-03T07:51:29.727Z,102482.28
2023-03-03T07:54:25.305Z,102484.44
2023-03-03T07:56:54.056Z,102482.34
2023-03-03T07:59:24.614Z,102485.09
2023-03-03T08:01:58.240Z,102493.72
2023-03-03T08:04:33.917Z,102496.69
2023-03-03T08:07:03.668Z,102506.09
2023-03-03T08:09:48.313Z,102496.22
2023-03-03T08:12:42.465Z,102502.91
2023-03-03T08:15:24.789Z,102501.38
2023-03-03T08:17:56.966Z,102506.72
2023-03-03T08:20:45.789Z,102512.06
2023-03-03T08:23:15.459Z,102511.25
2023-03-03T08:25:44.683Z,102519.81
2023-03-03T08:28:14.075Z,102502.97
2023-03-03T08:30:43.736Z,102514.19
2023-03-03T08:33:14.185Z,102522.78
2023-03-03T08:35:43.110Z,102523.88
2023-03-03T08:38:13.043Z,102521.53
2023-03-03T08:40:42.473Z,102525.53
2023-03-03T08:43:14.543Z,102528.75
2023-03-03T08:45:42.912Z,102529.88
2023-03-03T08:48:12.639Z,102540.09
2023-03-03T08:50:41.538Z,102529.97
2023-03-03T08:53:10.732Z,102530.50
2023-03-03T08:55:39.233Z,102532.91
2023-03-03T08:58:08.006Z,102547.13
2023-03-03T09:00:36.850Z,102542.31
2023-03-03T09:03:07.146Z,102550.84
2023-03-03T09:05:39.171Z,102549.56
2023-03-03T09:08:10.792Z,102558.13
2023-03-03T09:10:39.383Z,102562.16
2023-03-03T09:13:15.048Z,102546.38
2023-03-03T09:15:44.017Z,102554.41
2023-03-03T09:18:18.329Z,102549.84
2023-03-03T09:20:49.887Z,102557.06
2023-03-03T09:23:39.721Z,102557.88
2023-03-03T09:26:30.671Z,102553.06
2023-03-03T09:29:24.984Z,102553.34
2023-03-03T09:31:55.636Z,102549.84
2023-03-03T09:34:27.790Z,102553.34
2023-03-03T09:37:00.073Z,102553.91
2023-03-03T09:39:31.662Z,102562.75
2023-03-03T09:42:33.673Z,102557.38
2023-03-03T09:45:49.798Z,102563.84
2023-03-03T09:48:53.968Z,102569.75
2023-03-03T09:51:58.878Z,102565.50
2023-03-03T09:55:04.126Z,102564.44
2023-03-03T09:57:50.518Z,102570.38
2023-03-03T10:00:35.952Z,102577.31
2023-03-03T10:03:46.525Z,102576.50
2023-03-03T10:06:23.720Z,102574.94
2023-03-03T10:09:17.902Z,102577.91
2023-03-03T10:11:52.047Z,102586.25
2023-03-03T10:15:01.212Z,102592.41
2023-03-03T10:17:47.262Z,102590.31
2023-03-03T10:20:49.656Z,102591.41
2023-03-03T10:23:23.357Z,102581.84
2023-03-03T10:26:05.039Z,102579.19
2023-03-03T10:29:07.455Z,102578.16
2023-03-03T10:31:50.583Z,102576.56
2023-03-03T10:34:46.111Z,102576.09
2023-03-03T10:37:22.561Z,102579.63
2023-03-03T10:40:07.367Z,102579.63
2023-03-03T10:43:32.557Z,102577.78
2023-03-03T10:46:23.219Z,102577.03
2023-03-03T10:49:25.184Z,102572.78
2023-03-03T10:52:21.227Z,102580.56
2023-03-03T10:55:33.091Z,102585.97
2023-03-03T10:58:44.388Z,102579.00
2023-03-03T11:01:24.672Z,102577.13
2023-03-03T11:04:29.457Z,102583.34
2023-03-03T11:07:07.037Z,102579.09
2023-03-03T11:10:10.000Z,102583.88
2023-03-03T11:12:53.467Z,102579.63
2023-03-03T11:15:39.740Z,102575.38
2023-03-03T11:18:34.161Z,102582.34
2023-03-03T11:21:14.311Z,102583.44
2023-03-03T11:24:15.147Z,102581.59
2023-03-03T11:27:07.958Z,102577.59
2023-03-03T11:29:53.818Z,102582.97
2023-03-03T11:32:34.955Z,102577.91
2023-03-03T11:35:23.736Z,102572.56
2023-03-03T11:38:06.054Z,102568.25
2023-03-03T11:40:46.508Z,102574.75
2023-03-03T11:43:35.599Z,102564.84
2023-03-03T11:46:11.122Z,102561.63
2023-03-03T11:48:49.901Z,102568.34
2023-03-03T11:51:26.247Z,102561.09
2023-03-03T11:54:02.640Z,102556.03
2023-03-03T11:56:40.184Z,102560.88
2023-03-03T11:59:50.255Z,102564.09
2023-03-03T12:02:57.389Z,102556.31
2023-03-03T12:05:47.085Z,102563.81
2023-03-03T12:08:38.152Z,102553.88
2023-03-03T12:11:16.432Z,102559.50
2023-03-03T12:13:55.549Z,102549.28
2023-03-03T12:16:40.326Z,102554.66
2023-03-03T12:19:27.374Z,102545.28
2023-03-03T12:22:23.345Z,102543.66
2023-03-03T12:25:16.001Z,102546.34
2023-03-03T12:27:51.808Z,102544.47
2023-03-03T12:30:36.949Z,102543.94
2023-03-03T12:33:20.836Z,102541.75
2023-03-03T12:36:00.444Z,102543.31
2023-03-03T12:38:42.340Z,102542.69
2023-03-03T12:41:21.284Z,102543.13
2023-03-03T12:43:58.127Z,102540.56
2023-03-03T12:46:39.512Z,102542.66
2023-03-03T12:49:07.918Z,102530.47
2023-03-03T12:51:50.028Z,102525.56
2023-03-03T12:54:41.256Z,102537.28
2023-03-03T12:57:23.338Z,102531.31
2023-03-03T13:00:20.208Z,102537.44
2023-03-03T13:03:02.021Z,102542.78
2023-03-03T13:05:42.689Z,102533.91
2023-03-03T13:08:32.315Z,102521.25
2023-03-03T13:11:28.464Z,102529.34
2023-03-03T13:14:05.364Z,102520.44
2023-03-03T13:16:41.800Z,102518.22
2023-03-03T13:19:14.482Z,102525.66
2023-03-03T13:21:49.126Z,102511.59
2023-03-03T13:24:24.948Z,102508.56
2023-03-03T13:26:59.618Z,102506.91
2023-03-03T13:29:31.616Z,102510.56
2023-03-03T13:32:09.882Z,102505.63
2023-03-03T13:34:50.434Z,102509.09
2023-03-03T13:37:25.214Z,102499.91
2023-03-03T13:40:01.576Z,102511.66
2023-03-03T13:42:40.720Z,102503.84
2023-03-03T13:45:21.497Z,102502.31
2023-03-03T13:47:59.662Z,102494.53
2023-03-03T13:50:36.167Z,102504.72
2023-03-03T13:53:28.301Z,102494.94
2023-03-03T13:56:07.342Z,102495.72
2023-03-03T13:58:46.716Z,102486.81
2023-03-03T14:01:23.790Z,102489.78
2023-03-03T14:04:01.607Z,102482.00
2023-03-03T14:06:31.373Z,102485.22
2023-03-03T14:09:22.030Z,102483.84
2023-03-03T14:11:57.673Z,102487.81
2023-03-03T14:14:45.475Z,102485.66
2023-03-03T14:17:26.026Z,102485.06
2023-03-03T14:20:11.907Z,102481.28
2023-03-03T14:22:48.317Z,102471.03
2023-03-03T14:25:17.718Z,102470.50
2023-03-03T14:28:06.510Z,102472.59
2023-03-03T14:30:40.424Z,102467.44
2023-03-03T14:33:23.998Z,102469.28
2023-03-03T14:36:04.522Z,102470.28
2023-03-03T14:38:47.199Z,102466.28
2023-03-03T14:41:22.976Z,102460.38
2023-03-03T14:44:02.337Z,102452.50
2023-03-03T14:46:39.657Z,102458.41
2023-03-03T14:49:16.609Z,102457.59
2023-03-03T14:51:47.716Z,102450.63
2023-03-03T14:54:22.538Z,102444.88
2023-03-03T14:57:05.006Z,102442.88
2023-03-03T14:59:33.886Z,102437.69
2023-03-03T15:02:36.474Z,102439.84
2023-03-03T15:05:22.097Z,102443.34
2023-03-03T15:07:54.636Z,102431.75
2023-03-03T15:10:35.759Z,102435.50
2023-03-03T15:13:36.127Z,102438.75
2023-03-03T15:16:12.443Z,102433.03
2023-03-03T15:19:34.779Z,102437.13
2023-03-03T15:22:11.394Z,102430.72
2023-03-03T15:24:47.429Z,102432.09
2023-03-03T15:27:23.526Z,102436.09
2023-03-03T15:30:06.695Z,102432.31
2023-03-03T15:32:44.716Z,102423.13
2023-03-03T15:35:33.058Z,102429.63
2023-03-03T15:38:06.039Z,102424.28
2023-03-03T15:40:41.447Z,102423.81
2023-03-03T15:43:23.878Z,102418.72
2023-03-03T15:46:03.976Z,102419.00
2023-03-03T15:48:57.249Z,102421.13
2023-03-03T15:52:00.976Z,102419.50
2023-03-03T15:54:42.781Z,102414.13
2023-03-03T15:57:18.814Z,102408.50
2023-03-03T16:00:10.601Z,102413.25
2023-03-03T16:02:50.769Z,102406.84
2023-03-03T16:05:25.984Z,102413.63
2023-03-03T16:08:04.741Z,102414.69
2023-03-03T16:10:46.446Z,102408.59
2023-03-03T16:13:41.390Z,102414.88
2023-03-03T16:16:35.234Z,102415.72
2023-03-03T16:19:18.374Z,102419.88
2023-03-03T16:22:16.111Z,102416.94
2023-03-03T16:25:01.456Z,102410.47
2023-03-03T16:27:37.626Z,102418.63
2023-03-03T16:30:33.096Z,102421.91
2023-03-03T16:33:23.653Z,102414.97
2023-03-03T16:36:05.154Z,102418.25
2023-03-03T16:38:38.450Z,102418.53
2023-03-03T16:41:14.852Z,102409.44
2023-03-03T16:43:56.431Z,102415.13
2023-03-03T16:46:33.099Z,102415.38
2023-03-03T16:49:10.257Z,102410.09
2023-03-03T16:51:50.575Z,102415.22
2023-03-03T16:54:31.475Z,102421.19
2023-03-03T16:57:12.848Z,102427.13
2023-03-03T16:59:55.662Z,102425.06
2023-03-03T17:02:59.859Z,102423.72
2023-03-03T17:05:41.215Z,102426.75
2023-03-03T17:08:27.932Z,102427.59
2023-03-03T17:11:03.856Z,102433.31
2023-03-03T17:14:08.117Z,102437.69
2023-03-03T17:16:52.643Z,102436.13
2023-03-03T17:19:41.705Z,102437.28
2023-03-03T17:22:19.696Z,102434.63
2023-03-03T17:25:05.141Z,102450.00
2023-03-03T17:27:54.257Z,102441.97
2023-03-03T17:30:31.575Z,102449.25
2023-03-03T17:33:24.831Z,102454.72
2023-03-03T17:36:09.597Z,102457.44
2023-03-03T17:38:58.048Z,102458.56
2023-03-03T17:41:33.096Z,102454.81
2023-03-03T17:44:09.526Z,102462.09
2023-03-03T17:46:45.576Z,102467.47
2023-03-03T17:49:42.144Z,102458.59
2023-03-03T17:52:47.556Z,102462.38
2023-03-03T17:55:39.488Z,102472.59
2023-03-03T17:58:35.628Z,102472.84
2023-03-03T18:01:17.893Z,102478.22
2023-03-03T18:04:20.746Z,102479.03
2023-03-03T18:07:36.198Z,102472.06
2023-03-03T18:10:35.678Z,102484.41
2023-03-03T18:13:21.613Z,102487.09
2023-03-03T18:16:11.900Z,102477.19
2023-03-03T18:19:17.967Z,102489.53
2023-03-03T18:21:56.282Z,102476.09
2023-03-03T18:24:38.847Z,102477.69
2023-03-03T18:27:37.242Z,102479.59
2023-03-03T18:30:29.672Z,102477.97
2023-03-03T18:33:09.976Z,102475.28
2023-03-03T18:35:41.599Z,102480.66
2023-03-03T18:38:46.351Z,102478.22
2023-03-03T18:41:23.646Z,102484.41
2023-03-03T18:43:59.405Z,102489.78
2023-03-03T18:46:51.657Z,102490.88
2023-03-03T18:49:52.535Z,102482.81
2023-03-03T18:52:27.132Z,102494.38
2023-03-03T18:55:26.338Z,102498.94
2023-03-03T18:58:37.030Z,102497.84
2023-03-03T19:01:37.315Z,102496.81
2023-03-03T19:04:25.374Z,102487.41
2023-03-03T19:07:29.736Z,102505.13
2023-03-03T19:10:01.807Z,102504.31
2023-03-03T19:12:52.877Z,102510.81
2023-03-03T19:15:48.341Z,102509.19
2023-03-03T19:18:21.992Z,102503.31
2023-03-03T19:20:57.149Z,102502.22
2023-03-03T19:23:48.977Z,102498.72
2023-03-03T19:26:45.843Z,102508.69
2023-03-03T19:29:46.369Z,102512.19
2023-03-03T19:32:44.877Z,102504.38
2023-03-03T19:35:29.924Z,102506.25
2023-03-03T19:38:12.603Z,102516.19
2023-03-03T19:40:53.904Z,102504.66
2023-03-03T19:43:36.664Z,102508.69
2023-03-03T19:46:24.905Z,102513.00
2023-03-03T19:49:02.604Z,102515.69
2023-03-03T19:51:38.194Z,102513.28
2023-03-03T19:54:22.386Z,102513.00
2023-03-03T19:56:54.829Z,102515.19
2023-03-03T19:59:35.063Z,102514.69
2023-03-03T20:02:39.554Z,102513.31
2023-03-03T20:05:22.108Z,102511.19
2023-03-03T20:07:58.594Z,102513.34
2023-03-03T20:10:46.225Z,102508.25
2023-03-03T20:13:46.803Z,102521.19
2023-03-03T20:16:27.718Z,102512.06
2023-03-03T20:19:20.385Z,102524.97
2023-03-03T20:22:03.353Z,102521.75
2023-03-03T20:24:47.013Z,102526.56
2023-03-03T20:27:19.878Z,102526.56
2023-03-03T20:30:18.216Z,102526.56
2023-03-03T20:33:07.331Z,102537.31
2023-03-03T20:35:49.355Z,102534.09
2023-03-03T20:38:29.637Z,102544.06
2023-03-03T20:41:07.481Z,102538.69
2023-03-03T20:44:00.426Z,102536.00
2023-03-03T20:46:40.959Z,102541.34
2023-03-03T20:49:31.817Z,102538.69
2023-03-03T20:52:04.976Z,102541.59
2023-03-03T20:54:43.878Z,102546.47
2023-03-03T20:57:20.021Z,102544.84
2023-03-03T20:59:57.732Z,102549.94
2023-03-03T21:02:34.147Z,102545.38
2023-03-03T21:05:13.902Z,102554.25
2023-03-03T21:07:54.996Z,102548.63
2023-03-03T21:10:26.172Z,102553.44
2023-03-03T21:12:55.298Z,102544.00
2023-03-03T21:15:30.712Z,102546.13
2023-03-03T21:18:01.003Z,102547.75
2023-03-03T21:20:32.909Z,102547.22
2023-03-03T21:23:02.847Z,102553.41
2023-03-03T21:25:52.134Z,102543.69
2023-03-03T21:28:24.971Z,102554.19
2023-03-03T21:31:11.852Z,102547.47
2023-03-03T21:33:54.082Z,102559.00
2023-03-03T21:36:25.303Z,102546.38
2023-03-03T21:38:55.187Z,102549.06
2023-03-03T21:41:23.737Z,102544.50
2023-03-03T21:43:54.185Z,102549.88
2023-03-03T21:46:24.466Z,102546.38
2023-03-03T21:48:54.348Z,102543.69
2023-03-03T21:51:24.431Z,102550.16
2023-03-03T21:53:52.736Z,102556.88
2023-03-03T21:56:21.065Z,102555.53
2023-03-03T21:58:49.386Z,102553.91
2023-03-03T22:01:17.699Z,102553.72
2023-03-03T22:03:46.148Z,102551.28
2023-03-03T22:06:15.818Z,102560.41
2023-03-03T22:08:44.075Z,102555.31
2023-03-03T22:11:14.158Z,102549.66
2023-03-03T22:13:43.308Z,102546.69
2023-03-03T22:16:12.527Z,102541.06
2023-03-03T22:18:40.994Z,102554.50
2023-03-03T22:21:09.271Z,102538.91
2023-03-03T22:23:39.080Z,102537.03
2023-03-03T22:26:07.902Z,102540.53
2023-03-03T22:28:36.238Z,102542.41
2023-03-03T22:31:04.739Z,102542.69
2023-03-03T22:33:33.065Z,102542.16
2023-03-03T22:36:01.368Z,102548.88
2023-03-03T22:38:29.657Z,102544.28
2023-03-03T22:40:59.583Z,102550.22
2023-03-03T22:43:29.966Z,102552.09
2023-03-03T22:45:58.587Z,102545.38
2023-03-03T22:48:28.913Z,102542.69
2023-03-03T22:50:57.255Z,102544.28
2023-03-03T22:53:27.078Z,102539.72
2023-03-03T22:55:55.522Z,102543.22
2023-03-03T22:58:26.231Z,102542.69
2023-03-03T23:00:55.111Z,102544.25
2023-03-03T23:03:23.514Z,102543.19
2023-03-03T23:05:52.208Z,102550.16
2023-03-03T23:08:22.057Z,102548.81
2023-03-03T23:10:50.623Z,102549.06
2023-03-03T23:13:18.918Z,102545.84
2023-03-03T23:15:48.629Z,102545.28
2023-03-03T23:18:16.978Z,102551.47
2023-03-03T23:20:46.169Z,102545.03
2023-03-03T23:23:14.510Z,102547.44
2023-03-03T23:25:43.038Z,102546.66
2023-03-03T23:28:11.453Z,102539.38
2023-03-03T23:30:39.734Z,102537.50
2023-03-03T23:33:09.584Z,102547.13
2023-03-03T23:35:37.980Z,102540.97
2023-03-03T23:38:06.454Z,102538.28
2023-03-03T23:40:34.724Z,102541.78
2023-03-03T23:43:03.031Z,102545.25
2023-03-03T23:45:31.346Z,102547.13
2023-03-03T23:47:59.674Z,102549.84
2023-03-03T23:50:29.586Z,102540.97
2023-03-03T23:52:57.882Z,102544.75
2023-03-03T23:55:26.141Z,102540.19
2023-03-03T23:57:54.437Z,102536.69
